Flight Track Log - Related Links

Times and Time Zones

All times are in EDT time to prevent confusion due to time zone crossing. See the AWE1809 flight status page for this flight to view local times or setup timezone preferences in your user account.

Time Position Orientation Groundspeed Altitude Reporting Facility
EDT Latitude Longitude Course Direction KTS MPH feet Rate Location/Type
Tue 12:14:05 PM 39.8667 -75.2833 233° Southwest 168 193 700  Level Philadelphia TRACON
Tue 12:15:46 PM 39.8333 -75.4000 250° West 230 265 4,700 2,296 Climbing Philadelphia TRACON
Tue 12:16:00 PM 39.8334 -75.6840 270° West  Level FlightAware Approximate
Tue 12:16:47 PM 39.8167 -75.4833 255° West 272 313 6,900  Level Philadelphia TRACON
Tue 12:17:00 PM 39.8079 -75.8259 232° Southwest  Level FlightAware Approximate
Tue 12:18:00 PM 39.7354 -75.9465 232° Southwest  Level FlightAware Approximate
Tue 12:18:21 PM 39.8125 -75.6517 268° West 275 316 10,500  Level New York Center
Tue 12:19:00 PM 39.6595 -76.0626 233° Southwest  Level FlightAware Approximate
Tue 12:19:21 PM 39.8203 -75.7631 275° West 298 343 12,000  Level New York Center
Tue 12:20:21 PM 39.7719 -75.8675 239° Southwest 324 373 14,500 2,500 Climbing New York Center
Tue 12:21:21 PM 39.7111 -75.9739 233° Southwest 335 386 17,000 2,150 Climbing New York Center
Tue 12:22:21 PM 39.6411 -76.0900 232° Southwest 378 435 18,800 1,650 Climbing New York Center
Tue 12:23:21 PM 39.5778 -76.2011 234° Southwest 411 473 20,300 1,633 Climbing New York Center
Tue 12:25:21 PM 39.4208 -76.4539 231° Southwest 461 531 23,700 1,932 Climbing Washington Center
Tue 12:26:18 PM 39.3367 -76.5817 230° Southwest 466 536 26,000 1,169 Climbing Washington Center
Tue 12:27:19 PM 39.2583 -76.7094 232° Southwest 466 536 26,000  Level Washington Center
Tue 12:28:19 PM 39.1758 -76.8339 229° Southwest 466 536 26,000  Level Washington Center
Tue 12:29:20 PM 39.0975 -76.9583 231° Southwest 466 536 26,000  Level Washington Center
Tue 12:30:18 PM 39.0106 -77.0794 227° Southwest 461 531 26,000  Level Washington Center
Tue 12:31:19 PM 38.9092 -77.1869 220° Southwest 466 536 26,000  Level Washington Center
Tue 12:32:19 PM 38.8286 -77.2758 221° Southwest 472 543 26,000  Level Washington Center
Tue 12:33:20 PM 38.7058 -77.4061 220° Southwest 478 550 26,000  Level Washington Center
Tue 12:34:21 PM 38.6061 -77.5150 220° Southwest 483 556 26,000  Level Washington Center
Tue 12:35:18 PM 38.5064 -77.6239 221° Southwest 483 556 26,000  Level Washington Center
Tue 12:36:19 PM 38.4064 -77.7325 220° Southwest 483 556 26,000  Level Washington Center
Tue 12:37:20 PM 38.3064 -77.8408 220° Southwest 483 556 26,000  Level Washington Center
Tue 12:38:20 PM 38.2172 -77.9358 220° Southwest 483 556 26,000  Level Washington Center
Tue 12:39:19 PM 38.1169 -78.0436 220° Southwest 478 550 26,000 -504 Level Washington Center
Tue 12:40:19 PM 38.0103 -78.1586 220° Southwest 470 541 25,000 -843 Descending Washington Center
Tue 12:41:20 PM 37.9306 -78.2772 230° Southwest 454 522 24,300 -504 Descending Washington Center
Tue 12:42:18 PM 37.8464 -78.4003 229° Southwest 454 522 24,000 -151 Descending Washington Center
Tue 12:43:19 PM 37.7708 -78.5078 228° Southwest 459 528 24,000  Level Washington Center
Tue 12:44:20 PM 37.6864 -78.6281 228° Southwest 459 528 24,000  Level Washington Center
Tue 12:45:18 PM 37.6019 -78.7478 228° Southwest 459 528 24,000  Level Washington Center
Tue 12:46:18 PM 37.5153 -78.8700 228° Southwest 464 534 24,000  Level Washington Center
Tue 12:47:19 PM 37.4197 -79.0017 228° Southwest 464 534 24,000  Level Washington Center
Tue 12:48:19 PM 37.3350 -79.1208 228° Southwest 464 534 24,000  Level Washington Center
Tue 12:49:21 PM 37.2439 -79.2417 227° Southwest 469 540 24,000  Level Washington Center
Tue 12:50:18 PM 37.1386 -79.3333 215° Southwest 469 540 24,000  Level Washington Center
Tue 12:51:19 PM 37.0294 -79.4217 213° Southwest 475 547 24,000  Level Washington Center
Tue 12:52:20 PM 36.9331 -79.5050 215° Southwest 475 547 24,000  Level Washington Center
Tue 12:53:18 PM 36.8236 -79.5903 212° Southwest 475 547 24,000  Level Washington Center
Tue 12:54:21 PM 36.7164 -79.6808 214° Southwest 469 540 24,000  Level Washington Center
Tue 12:55:18 PM 36.6069 -79.7681 213° Southwest 469 540 24,000  Level Washington Center
Tue 12:56:21 PM 36.4797 -79.8689 213° Southwest 478 550 24,000  Level Atlanta Center
Tue 12:57:21 PM 36.3700 -79.9597 214° Southwest 483 556 24,000  Level Atlanta Center
Tue 12:58:21 PM 36.2808 -80.0336 214° Southwest 459 528 24,000  Level Atlanta Center
Tue 12:59:21 PM 36.1853 -80.1156 215° Southwest 442 509 24,000 -750 Level Atlanta Center
Tue 01:00:21 PM 36.0919 -80.1947 214° Southwest 430 495 22,500 -2,050 Descending Atlanta Center
Tue 01:01:21 PM 35.9964 -80.2736 214° Southwest 425 489 19,900 -1,850 Descending Atlanta Center
Tue 01:02:21 PM 35.9031 -80.3600 217° Southwest 412 474 18,800 -1,361 Descending Atlanta Center
Tue 01:03:20 PM 35.8236 -80.4250 214° Southwest 352 405 17,200 -889 Descending Atlanta Center
Tue 01:04:09 PM 35.7564 -80.4817 214° Southwest 343 395 17,200 -655 Level Atlanta Center
Tue 01:05:10 PM 35.6811 -80.5439 214° Southwest 324 373 16,000 -1,455 Descending Atlanta Center
Tue 01:06:21 PM 35.5936 -80.6217 216° Southwest 335 386 14,000 -1,475 Descending Atlanta Center
Tue 01:07:12 PM 35.5344 -80.6700 214° Southwest 322 371 13,000 -589 Descending Atlanta Center
Tue 01:08:13 PM 35.4567 -80.7344 214° Southwest 308 354 12,900 -791 Descending Atlanta Center
Tue 01:09:21 PM 35.3833 -80.7908 212° Southwest 314 361 11,300 -1,475 Descending Atlanta Center
Tue 01:10:15 PM 35.3156 -80.8394 210° Southwest 292 336 9,900 -1,200 Descending Atlanta Center
Tue 01:11:16 PM 35.2406 -80.8397 180° South 259 298 9,000 -1,122 Descending Atlanta Center
Tue 01:12:18 PM 35.1694 -80.8322 175° South 244 281 7,600 -1,268 Descending Atlanta Center
Tue 01:13:19 PM 35.0919 -80.8250 176° South 254 292 6,400 -1,034 Descending Atlanta Center
Tue 01:14:14 PM 35.0356 -80.8197 176° South 224 258 5,600 -983 Descending Atlanta Center
Tue 01:15:15 PM 35.0119 -80.8714 241° Southwest 192 221 4,500 -934 Descending Atlanta Center
Tue 01:16:16 PM 35.0586 -80.9050 329° Northwest 185 213 3,700 -829 Descending Atlanta Center
Tue 01:17:18 PM 35.1050 -80.9286 337° Northwest 186 214 2,800 -976 Descending Atlanta Center
Tue 01:18:19 PM 35.1531 -80.9319 357° North 150 173 1,700 -885 Descending Atlanta Center
Tue 01:19:20 PM 35.1908 -80.9356 356° North 135 155 1,000 -689 Descending Atlanta Center

Login

Don't have an account? Register now (free) for customized features, flight alerts, and more!